Terminal Aerodrome Forecast
Issued by NWS

Home | Current Version | Previous Version | Text Only | Print | Product List | Glossary On
Versions: 1 2 3 4 5 6 7 8 9 10 11 12 13 14 15 16 17 18
000
FTUS46 KLOX 180400 AAA
TAFVNY
TAF AMD
KVNY 180444Z 1805/1824 15007KT P6SM OVC019
     FM180900 15007KT P6SM OVC022
     FM182000 15007KT P6SM OVC030
     FM182200 15011KT P6SM OVC035=

USA.gov is the U.S. government's official web portal to all federal, state and local government web resources and services.